MUVR/VRA METAR and TAF weather

Enter ICAO airport designator
Station Type Date Time Source
MUVR METAR 2020/10/20 16:50 UTC NOAA

MUVR 201650Z 09009KT 9000 FEW019TCU BKN020 28/24 Q1012


Station Type Date Time Source
MUVR Decoded METAR 2020/10/20 16:50 UTC NOAA

Varadero, Matanzas, Cuba (MUVR) 23-08N 081-17W 3M
Oct 20, 2020 - 12:50 PM EDT / 2020.10.20 1650 UTC
Wind: from the E (090 degrees) at 10 MPH (9 KT):0
Visibility: 5 mile(s):0
Sky conditions: mostly cloudy
Weather: Towering cumulus clouds observed
Temperature: 82 F (28 C)
Dew Point: 75 F (24 C)
Relative Humidity: 78%
Pressure (altimeter): 29.88 in. Hg (1012 hPa)
ob: MUVR 201650Z 09009KT 9000 FEW019TCU BKN020 28/24 Q1012
cycle: 17

Station Type Date Time Source
MUVR TAF 2020/10/20 18:03 UTC NOAA

TAF MUVR 201700Z 2018/2118 07010KT 9000 SCT020
TEMPO 2018/2024 VRB10KT 4000 TSRA SCT018CB BKN020
BECMG 2101/2103 VRB03KT

Example: see airport list